Time;durP1;ratioP1;P1;durP2;ratioP2;P2;SDS_P1;SDS_P2;PMS_P1;PMS_P2;Temp;Humidity;BMP_temperature;BMP_pressure;BME280_temperature;BME280_humidity;BME280_pressure;Samples;Min_cycle;Max_cycle;Signal;HPM_P1;HPM_P2
2023/12/05 00:00:35;;;;;;;26.67;10.93;;;;;;;-7.53;65.76;99865.31;5031307;28;20345;-51
2023/12/05 00:03:02;;;;;;;23.15;10.27;;;;;;;-7.41;65.94;99874.78;5037574;28;20032;-56
2023/12/05 00:05:28;;;;;;;23.48;10.35;;;;;;;-7.33;65.52;99879.06;5052922;28;20352;-55
2023/12/05 00:07:53;;;;;;;25.63;11.75;;;;;;;-7.19;64.79;99887.66;5049686;28;20036;-55
2023/12/05 00:10:19;;;;;;;24.20;11.73;;;;;;;-7.12;65.32;99871.09;5032469;28;20064;-55
2023/12/05 00:12:45;;;;;;;22.08;10.68;;;;;;;-7.01;64.82;99865.81;5043505;28;20029;-55
2023/12/05 00:15:11;;;;;;;27.65;11.48;;;;;;;-6.95;64.67;99870.13;5052525;28;20048;-58
2023/12/05 00:17:36;;;;;;;23.50;11.70;;;;;;;-6.89;64.45;99866.59;5047361;28;20042;-56
2023/12/05 00:20:03;;;;;;;21.50;10.38;;;;;;;-6.85;64.62;99869.16;5034912;28;20384;-52
2023/12/05 00:22:29;;;;;;;27.02;10.90;;;;;;;-6.77;64.53;99875.16;5050584;28;20117;-52
2023/12/05 00:24:55;;;;;;;25.58;11.48;;;;;;;-6.71;64.23;99870.78;5050858;28;20442;-53
2023/12/05 00:27:21;;;;;;;25.02;11.00;;;;;;;-6.65;64.17;99875.94;5051130;28;20033;-55
2023/12/05 00:29:47;;;;;;;26.35;11.00;;;;;;;-6.67;64.23;99857.72;5048713;28;20115;-54
2023/12/05 00:32:13;;;;;;;23.80;11.02;;;;;;;-6.56;64.16;99868.03;5046620;28;20119;-51
2023/12/05 00:34:39;;;;;;;22.95;10.75;;;;;;;-6.49;64.21;99863.63;5032346;28;20055;-55
2023/12/05 00:37:04;;;;;;;23.88;10.57;;;;;;;-6.47;63.97;99874.03;5047140;28;20033;-56
2023/12/05 00:39:30;;;;;;;21.50;10.38;;;;;;;-6.46;63.64;99862.75;5054415;28;20025;-54
2023/12/05 00:41:55;;;;;;;22.85;10.25;;;;;;;-6.77;63.98;99815.25;5049293;28;20033;-55
2023/12/05 00:44:21;;;;;;;22.42;10.02;;;;;;;-6.70;64.25;99820.44;5036065;28;20421;-54
2023/12/05 00:46:47;;;;;;;23.75;10.15;;;;;;;-6.45;63.71;99875.72;5037721;28;20029;-53
2023/12/05 00:49:12;;;;;;;23.45;10.40;;;;;;;-6.44;63.81;99868.78;5054861;28;20463;-58
2023/12/05 00:51:38;;;;;;;22.35;11.15;;;;;;;-6.45;63.82;99872.28;5055457;28;20033;-53
2023/12/05 00:54:04;;;;;;;22.30;10.50;;;;;;;-6.46;64.10;99852.31;5055668;28;20104;-57
2023/12/05 00:56:29;;;;;;;26.42;10.25;;;;;;;-6.42;63.89;99860.06;5055414;28;20443;-56
2023/12/05 00:58:55;;;;;;;20.92;9.82;;;;;;;-6.41;64.01;99863.53;5053610;28;20622;-53
2023/12/05 01:01:21;;;;;;;22.02;10.43;;;;;;;-6.39;63.91;99862.66;5038618;28;20037;-53
2023/12/05 01:03:46;;;;;;;21.92;10.38;;;;;;;-6.35;63.92;99861.75;5035107;28;20407;-53
2023/12/05 01:06:12;;;;;;;22.33;10.95;;;;;;;-6.43;63.51;99849.69;5035418;28;20882;-52
2023/12/05 01:08:37;;;;;;;27.33;10.85;;;;;;;-6.34;63.74;99862.59;5035586;28;20109;-56
2023/12/05 01:11:03;;;;;;;22.80;11.27;;;;;;;-6.32;63.54;99858.22;5035112;28;20037;-56
2023/12/05 01:13:29;;;;;;;23.45;11.25;;;;;;;-6.30;63.78;99856.47;5035103;28;20025;-55
2023/12/05 01:15:54;;;;;;;21.98;10.77;;;;;;;-6.26;63.79;99867.72;5044225;28;20037;-57
2023/12/05 01:18:20;;;;;;;22.42;11.40;;;;;;;-6.25;63.28;99865.13;5055055;28;20056;-51
2023/12/05 01:20:46;;;;;;;24.50;10.88;;;;;;;-6.19;63.15;99858.94;5050225;28;20364;-55
2023/12/05 01:23:11;;;;;;;22.08;11.15;;;;;;;-6.23;63.17;99847.72;5055185;28;20044;-53
2023/12/05 01:25:37;;;;;;;24.60;11.10;;;;;;;-6.19;63.46;99869.38;5055085;28;20424;-53
2023/12/05 01:28:02;;;;;;;23.45;10.93;;;;;;;-6.18;63.32;99868.50;5047765;28;20028;-59
2023/12/05 01:30:28;;;;;;;25.45;10.98;;;;;;;-6.20;63.76;99873.75;5034537;28;20049;-55
2023/12/05 01:32:54;;;;;;;20.60;10.50;;;;;;;-6.20;63.47;99872.88;5035445;28;20368;-59
2023/12/05 01:35:20;;;;;;;26.77;12.32;;;;;;;-6.26;63.45;99857.31;5035190;28;20033;-57
2023/12/05 01:37:48;;;;;;;26.55;11.77;;;;;;;-6.18;63.23;99865.88;5034579;28;20034;-57
2023/12/05 01:40:13;;;;;;;25.77;11.70;;;;;;;-6.17;63.09;99866.78;5034017;28;20044;-59
2023/12/05 01:42:39;;;;;;;25.10;11.60;;;;;;;-6.17;63.35;99874.59;5045675;28;20079;-57
2023/12/05 01:45:06;;;;;;;24.10;11.77;;;;;;;-6.16;63.27;99868.50;5051557;28;20025;-56
2023/12/05 01:47:34;;;;;;;24.63;11.15;;;;;;;-6.14;63.34;99865.00;5034319;28;20108;-57
2023/12/05 01:50:00;;;;;;;26.45;12.02;;;;;;;-6.12;63.11;99878.00;5033633;28;20033;-58
2023/12/05 01:52:26;;;;;;;21.90;10.52;;;;;;;-6.14;63.19;99874.56;5034887;28;20037;-51
2023/12/05 01:54:52;;;;;;;26.52;12.00;;;;;;;-6.10;63.31;99878.84;5034855;28;20021;-56
2023/12/05 01:57:19;;;;;;;26.40;11.32;;;;;;;-6.10;63.18;99884.06;5039431;28;20028;-56
2023/12/05 01:59:45;;;;;;;25.80;11.63;;;;;;;-6.12;63.66;99865.84;5051669;28;20044;-59
2023/12/05 02:02:12;;;;;;;25.05;11.43;;;;;;;-6.12;63.16;99855.41;5049182;28;20436;-56
2023/12/05 02:04:39;;;;;;;25.55;11.43;;;;;;;-6.05;63.44;99879.66;5054302;28;20060;-58
2023/12/05 02:07:06;;;;;;;21.67;10.45;;;;;;;-6.06;63.55;99870.09;5053811;28;20028;-56
2023/12/05 02:09:32;;;;;;;28.80;11.95;;;;;;;-6.09;63.04;99865.81;5054166;28;20458;-55
2023/12/05 02:11:57;;;;;;;26.42;11.55;;;;;;;-6.07;63.33;99868.38;5046577;28;20029;-58
2023/12/05 02:14:24;;;;;;;21.75;10.27;;;;;;;-6.06;63.02;99885.75;5034539;28;20040;-55
2023/12/05 02:17:02;;;;;;;25.25;11.23;;;;;;;-6.04;63.16;99872.69;5033815;28;20047;-50
2023/12/05 02:19:53;;;;;;;29.30;11.40;;;;;;;-5.98;63.08;99868.25;5039811;28;20029;-55
2023/12/05 02:22:28;;;;;;;23.02;10.75;;;;;;;-5.95;63.50;99872.53;5054379;28;20451;-53
2023/12/05 02:25:06;;;;;;;23.10;10.88;;;;;;;-5.97;63.02;99869.09;5053056;28;20033;-57
2023/12/05 02:27:39;;;;;;;21.55;9.98;;;;;;;-5.99;62.74;99871.75;5038895;28;20037;-57
2023/12/05 02:30:05;;;;;;;22.92;10.55;;;;;;;-6.02;62.91;99878.75;5033644;28;20045;-55
2023/12/05 02:32:32;;;;;;;23.42;10.15;;;;;;;-6.02;63.00;99874.41;5034043;28;20048;-55
2023/12/05 02:34:58;;;;;;;22.70;10.43;;;;;;;-6.04;62.82;99867.50;5033870;28;20045;-54
2023/12/05 02:37:58;;;;;;;20.85;10.60;;;;;;;-6.00;63.22;99869.13;5034855;28;20052;-55
2023/12/05 02:40:51;;;;;;;21.67;10.13;;;;;;;-5.96;62.58;99873.44;5034119;28;20046;-55
2023/12/05 02:43:25;;;;;;;26.80;10.63;;;;;;;-6.01;62.38;99877.88;5033628;28;20033;-56
2023/12/05 02:45:52;;;;;;;19.08;9.48;;;;;;;-6.06;62.46;99876.19;5033472;28;20037;-54
2023/12/05 02:48:19;;;;;;;20.80;10.73;;;;;;;-6.10;62.22;99887.53;5033319;28;20262;-52
2023/12/05 02:50:46;;;;;;;26.40;11.35;;;;;;;-6.13;62.23;99889.31;5033385;28;20025;-54
2023/12/05 02:53:11;;;;;;;23.95;10.10;;;;;;;-6.16;62.64;99884.13;5033325;28;20039;-57
2023/12/05 02:55:38;;;;;;;23.25;10.93;;;;;;;-6.24;62.56;99895.50;5036056;28;20108;-54
2023/12/05 02:58:03;;;;;;;23.27;11.38;;;;;;;-6.24;62.76;99892.03;5053108;28;20029;-54
2023/12/05 03:00:29;;;;;;;21.65;10.10;;;;;;;-6.29;62.63;99873.81;5051048;28;20030;-58
2023/12/05 03:02:55;;;;;;;22.52;9.95;;;;;;;-6.57;62.19;99831.59;5035349;28;20037;-54
2023/12/05 03:05:20;;;;;;;22.45;10.73;;;;;;;-6.33;62.64;99877.34;5033465;28;20029;-53
2023/12/05 03:07:46;;;;;;;20.80;10.48;;;;;;;-6.46;62.94;99876.63;5032743;28;20080;-52
2023/12/05 03:10:11;;;;;;;22.25;10.02;;;;;;;-6.43;62.71;99897.41;5033264;28;20037;-54
2023/12/05 03:12:37;;;;;;;22.73;10.93;;;;;;;-6.44;62.97;99897.44;5048096;28;20367;-50
2023/12/05 03:15:03;;;;;;;22.58;11.13;;;;;;;-6.45;62.35;99900.94;5052681;28;20033;-53
2023/12/05 03:17:30;;;;;;;21.02;10.02;;;;;;;-6.49;62.72;99898.38;5052955;28;20033;-57
2023/12/05 03:19:56;;;;;;;22.65;10.43;;;;;;;-6.54;62.17;99894.91;5053511;28;20100;-57
2023/12/05 03:22:22;;;;;;;23.52;10.63;;;;;;;-6.59;62.59;99891.50;5052532;28;20082;-56
2023/12/05 03:24:47;;;;;;;21.13;9.90;;;;;;;-6.84;62.50;99852.66;5036428;28;20045;-58
2023/12/05 03:27:13;;;;;;;19.25;9.25;;;;;;;-6.53;62.27;99914.88;5046872;28;20111;-57
2023/12/05 03:29:38;;;;;;;20.48;10.40;;;;;;;-6.51;62.51;99907.94;5052661;28;20087;-55
2023/12/05 03:32:04;;;;;;;23.55;10.82;;;;;;;-6.52;62.62;99908.78;5052554;28;20052;-57
2023/12/05 03:34:30;;;;;;;23.55;10.40;;;;;;;-6.54;62.69;99904.50;5052652;28;20041;-56
2023/12/05 03:36:56;;;;;;;21.35;9.77;;;;;;;-6.57;62.48;99912.34;5052653;28;20029;-54
2023/12/05 03:39:21;;;;;;;22.13;10.55;;;;;;;-6.71;62.39;99886.41;5037380;28;20041;-56
2023/12/05 03:41:47;;;;;;;21.25;9.73;;;;;;;-6.63;62.71;99901.09;5052006;28;20024;-57
2023/12/05 03:44:13;;;;;;;26.92;10.30;;;;;;;-6.66;62.34;99913.28;5047562;28;20040;-58
2023/12/05 03:46:39;;;;;;;22.55;10.70;;;;;;;-6.71;62.31;99900.28;5037864;28;20445;-55
2023/12/05 03:49:04;;;;;;;19.73;9.68;;;;;;;-6.75;62.27;99916.81;5032411;28;20029;-56
2023/12/05 03:51:30;;;;;;;21.35;9.98;;;;;;;-6.80;62.14;99916.84;5032405;28;20417;-56
2023/12/05 03:53:56;;;;;;;19.92;9.82;;;;;;;-6.82;62.58;99921.19;5033189;28;20095;-56
2023/12/05 03:56:22;;;;;;;22.15;9.88;;;;;;;-6.84;62.20;99906.47;5051217;28;20892;-53
2023/12/05 03:58:47;;;;;;;22.52;10.05;;;;;;;-6.80;61.89;99918.59;5052400;28;20052;-59
2023/12/05 04:01:13;;;;;;;21.63;9.85;;;;;;;-6.90;61.92;99922.13;5052052;28;20029;-53
2023/12/05 04:03:39;;;;;;;22.75;10.43;;;;;;;-7.11;62.08;99896.25;5045789;28;20329;-57
2023/12/05 04:06:05;;;;;;;20.10;9.60;;;;;;;-7.06;62.22;99914.44;5031890;28;20084;-56
2023/12/05 04:08:30;;;;;;;24.70;10.20;;;;;;;-7.13;62.41;99926.63;5033740;28;20029;-58
2023/12/05 04:10:56;;;;;;;21.42;10.05;;;;;;;-7.27;61.85;99923.25;5049194;28;20055;-55
2023/12/05 04:13:21;;;;;;;20.80;9.95;;;;;;;-7.39;62.30;99921.56;5053640;28;20064;-57
2023/12/05 04:15:47;;;;;;;22.00;10.15;;;;;;;-7.53;62.00;99925.13;5056686;28;20040;-58
2023/12/05 04:18:13;;;;;;;20.58;9.85;;;;;;;-7.67;62.75;99938.19;5056591;28;20364;-55
2023/12/05 04:20:38;;;;;;;28.05;10.73;;;;;;;-7.75;63.04;99937.34;5055831;28;20031;-54
2023/12/05 04:23:04;;;;;;;22.90;10.50;;;;;;;-7.92;63.05;99940.00;5054374;28;20351;-51
2023/12/05 04:25:29;;;;;;;22.50;9.60;;;;;;;-7.96;63.30;99931.38;5036531;28;20422;-56
2023/12/05 04:27:55;;;;;;;24.75;11.30;;;;;;;-8.11;63.38;99940.06;5036136;28;20030;-57
2023/12/05 04:30:21;;;;;;;21.48;9.75;;;;;;;-8.25;63.40;99934.03;5035654;28;20065;-52
2023/12/05 04:32:46;;;;;;;24.73;11.02;;;;;;;-8.30;63.49;99944.44;5036547;28;20048;-50
2023/12/05 04:35:12;;;;;;;19.63;9.68;;;;;;;-8.31;63.77;99944.44;5055684;28;20033;-51
2023/12/05 04:37:38;;;;;;;21.25;10.43;;;;;;;-8.35;63.69;99946.19;5054016;28;20100;-51
2023/12/05 04:40:04;;;;;;;26.02;10.20;;;;;;;-8.35;64.29;99953.97;5037281;28;20476;-49
2023/12/05 04:42:30;;;;;;;26.38;9.70;;;;;;;-8.32;64.55;99955.66;5035362;28;20400;-50
2023/12/05 04:44:55;;;;;;;23.05;10.73;;;;;;;-8.29;64.40;99953.94;5051276;28;20021;-49
2023/12/05 04:47:21;;;;;;;21.63;9.57;;;;;;;-8.22;64.09;99953.06;5055018;28;20479;-50
2023/12/05 04:49:47;;;;;;;22.20;10.43;;;;;;;-8.19;64.11;99948.75;5054858;28;20033;-50
2023/12/05 04:52:12;;;;;;;23.05;11.07;;;;;;;-8.14;63.60;99954.81;5053546;28;20039;-59
2023/12/05 04:54:38;;;;;;;22.35;10.18;;;;;;;-8.11;63.98;99960.00;5038008;28;20026;-55
2023/12/05 04:57:03;;;;;;;24.80;11.30;;;;;;;-8.07;63.92;99966.91;5035206;28;20107;-58
2023/12/05 04:59:29;;;;;;;25.98;10.25;;;;;;;-8.04;64.12;99966.88;5042178;28;20478;-52
2023/12/05 05:01:55;;;;;;;24.52;10.77;;;;;;;-8.02;63.54;99967.75;5055199;28;20033;-56
2023/12/05 05:04:20;;;;;;;22.23;9.63;;;;;;;-8.04;63.61;99961.69;5042443;28;20037;-53
2023/12/05 05:06:46;;;;;;;25.42;10.75;;;;;;;-8.02;63.35;99959.94;5050256;28;20040;-54
2023/12/05 05:09:12;;;;;;;22.17;10.35;;;;;;;-8.26;63.39;99925.38;5050568;28;20082;-53
2023/12/05 05:11:37;;;;;;;24.20;10.40;;;;;;;-8.05;63.21;99951.31;5034978;28;20075;-57
2023/12/05 05:14:03;;;;;;;21.52;10.18;;;;;;;-8.01;63.42;99959.09;5035726;28;20063;-57
2023/12/05 05:16:29;;;;;;;21.70;10.00;;;;;;;-7.96;63.83;99965.16;5035348;28;20026;-57
2023/12/05 05:18:55;;;;;;;22.85;10.52;;;;;;;-7.97;63.32;99966.00;5035063;28;20044;-56
2023/12/05 05:21:20;;;;;;;25.33;10.75;;;;;;;-7.99;63.05;99970.34;5040451;28;20440;-57
2023/12/05 05:23:46;;;;;;;23.23;10.75;;;;;;;-8.05;63.09;99980.75;5054722;28;20095;-55
2023/12/05 05:26:13;;;;;;;26.88;11.65;;;;;;;-8.18;62.88;99974.72;5053298;28;20039;-52
2023/12/05 05:28:39;;;;;;;28.05;10.80;;;;;;;-8.32;63.14;99977.34;5054628;28;20039;-51
2023/12/05 05:31:05;;;;;;;26.00;10.88;;;;;;;-8.31;63.60;99989.44;5055455;28;20041;-50
2023/12/05 05:33:31;;;;;;;25.20;10.13;;;;;;;-8.61;63.66;99954.88;5044368;28;20097;-49
2023/12/05 05:35:56;;;;;;;31.25;13.05;;;;;;;-8.40;64.02;99998.09;5038894;28;20032;-50
2023/12/05 05:38:22;;;;;;;26.98;11.30;;;;;;;-8.40;63.96;100005.91;5054508;28;20071;-50
2023/12/05 05:40:48;;;;;;;23.15;10.70;;;;;;;-8.39;63.76;99991.19;5054784;28;20045;-52
2023/12/05 05:43:13;;;;;;;20.15;10.50;;;;;;;-8.41;63.93;99998.97;5040327;28;20030;-55
2023/12/05 05:45:40;;;;;;;23.25;10.60;;;;;;;-8.43;63.53;100000.72;5034572;28;20033;-56
2023/12/05 05:48:05;;;;;;;25.88;11.55;;;;;;;-8.66;63.66;99975.63;5034653;28;20112;-54
2023/12/05 05:50:31;;;;;;;25.05;10.77;;;;;;;-8.43;63.83;100028.44;5037417;28;20124;-55
2023/12/05 05:52:57;;;;;;;26.30;11.35;;;;;;;-8.72;63.40;99986.03;5054894;28;20430;-54
2023/12/05 05:55:26;;;;;;;22.67;10.25;;;;;;;-8.51;63.65;100034.50;5053488;28;20025;-56
2023/12/05 05:57:52;;;;;;;27.38;11.00;;;;;;;-8.61;63.80;100030.16;5054375;28;20033;-55
2023/12/05 06:00:18;;;;;;;26.27;10.43;;;;;;;-8.65;63.50;100031.03;5054742;28;20428;-55
2023/12/05 06:02:44;;;;;;;27.30;11.55;;;;;;;-8.87;63.69;100002.44;5054630;28;20079;-56
2023/12/05 06:05:10;;;;;;;22.85;10.77;;;;;;;-8.58;64.27;100037.97;5051623;28;20108;-56
2023/12/05 06:07:36;;;;;;;25.30;11.30;;;;;;;-8.49;64.02;100034.47;5034361;28;20500;-58
2023/12/05 06:10:03;;;;;;;26.08;11.77;;;;;;;-8.39;63.81;100043.13;5035207;28;20087;-56
2023/12/05 06:12:32;;;;;;;23.42;10.20;;;;;;;-8.28;63.53;100048.34;5052465;28;20037;-56
2023/12/05 06:14:58;;;;;;;25.13;10.95;;;;;;;-8.29;63.29;100021.47;5044830;28;20033;-57
2023/12/05 06:17:23;;;;;;;22.05;10.15;;;;;;;-8.02;63.04;100053.50;5033618;28;20415;-54
2023/12/05 06:19:50;;;;;;;24.77;10.38;;;;;;;-8.04;62.86;100039.66;5033741;28;20021;-56
2023/12/05 06:22:16;;;;;;;26.17;11.20;;;;;;;-7.78;62.52;100069.94;5053023;28;20029;-58
2023/12/05 06:24:41;;;;;;;25.23;10.70;;;;;;;-7.66;62.16;100056.94;5053624;28;20371;-55
2023/12/05 06:27:07;;;;;;;23.80;10.75;;;;;;;-7.50;61.64;100057.75;5054104;28;20040;-52
2023/12/05 06:29:33;;;;;;;23.88;10.77;;;;;;;-7.32;61.30;100071.56;5052645;28;20093;-56
2023/12/05 06:31:58;;;;;;;22.33;10.43;;;;;;;-7.13;60.78;100074.97;5036655;28;20106;-57
2023/12/05 06:34:25;;;;;;;23.48;10.48;;;;;;;-6.94;60.52;100080.09;5034816;28;20028;-54
2023/12/05 06:36:50;;;;;;;22.65;10.95;;;;;;;-7.12;60.14;100016.84;5047120;28;20041;-55
2023/12/05 06:39:16;;;;;;;22.90;10.98;;;;;;;-6.74;59.72;100068.72;5033695;28;20030;-53
2023/12/05 06:41:42;;;;;;;26.48;10.93;;;;;;;-6.52;59.45;100077.25;5045456;28;20481;-60
2023/12/05 06:44:08;;;;;;;24.48;11.27;;;;;;;-6.27;59.15;100083.16;5052146;28;20024;-57
2023/12/05 06:46:33;;;;;;;23.08;10.73;;;;;;;-6.21;58.15;100031.00;5052706;28;20025;-58
2023/12/05 06:49:00;;;;;;;25.23;11.40;;;;;;;-5.73;56.92;100078.31;5051628;28;20037;-58
2023/12/05 06:51:26;;;;;;;21.73;10.80;;;;;;;-5.51;56.57;100082.44;5035438;28;20025;-58
2023/12/05 06:53:51;;;;;;;24.10;11.10;;;;;;;-5.22;56.35;100081.25;5033368;28;20029;-60
2023/12/05 06:56:20;;;;;;;26.88;12.25;;;;;;;-4.92;55.76;100091.34;5033311;28;20403;-56
2023/12/05 06:58:46;;;;;;;24.30;11.45;;;;;;;-4.77;54.64;100088.56;5032980;28;20036;-54
2023/12/05 07:01:11;;;;;;;26.95;11.57;;;;;;;-4.57;54.54;100089.16;5033866;28;20116;-54
2023/12/05 07:03:37;;;;;;;24.45;11.65;;;;;;;-4.28;54.48;100093.09;5034349;28;20109;-57
2023/12/05 07:06:04;;;;;;;22.90;11.40;;;;;;;-3.98;53.37;100099.59;5047435;28;20033;-55
2023/12/05 07:08:30;;;;;;;25.20;11.50;;;;;;;-3.80;52.87;100100.19;5033060;28;20421;-52
2023/12/05 07:10:56;;;;;;;25.00;11.27;;;;;;;-3.72;53.05;100105.28;5047506;28;20057;-56
2023/12/05 07:13:21;;;;;;;25.42;11.30;;;;;;;-3.65;52.53;100105.13;5052526;28;20124;-56
2023/12/05 07:15:47;;;;;;;22.73;11.15;;;;;;;-3.55;51.98;100105.84;5052698;28;20033;-56
2023/12/05 07:18:13;;;;;;;21.33;11.05;;;;;;;-3.39;52.18;100110.81;5053176;28;20091;-57
2023/12/05 07:20:38;;;;;;;26.95;11.63;;;;;;;-2.96;50.33;100114.34;5036731;28;20051;-59
2023/12/05 07:23:04;;;;;;;24.27;11.48;;;;;;;-2.74;49.85;100110.38;5032340;28;20087;-58
2023/12/05 07:25:29;;;;;;;23.40;12.00;;;;;;;-2.73;49.87;100121.75;5032720;28;20455;-57
2023/12/05 07:27:55;;;;;;;24.17;11.35;;;;;;;-3.11;49.03;100060.50;5034299;28;20119;-61
2023/12/05 07:30:22;;;;;;;25.73;12.27;;;;;;;-2.96;49.82;100122.19;5052027;28;20036;-60
2023/12/05 07:32:48;;;;;;;27.77;12.55;;;;;;;-3.18;49.31;100120.88;5052431;28;20040;-59
2023/12/05 07:35:13;;;;;;;28.58;12.45;;;;;;;-3.58;50.13;100105.91;5040809;28;20040;-63
2023/12/05 07:37:39;;;;;;;25.92;12.48;;;;;;;-3.77;50.91;100113.22;5049215;28;20030;-61
2023/12/05 07:40:06;;;;;;;29.23;13.68;;;;;;;-3.92;51.25;100109.94;5050524;28;20035;-63
2023/12/05 07:42:32;;;;;;;25.90;12.85;;;;;;;-4.24;51.81;100072.13;5052058;28;20071;-57
2023/12/05 07:44:57;;;;;;;28.13;13.15;;;;;;;-4.15;52.25;100114.69;5049747;28;20056;-59
2023/12/05 07:47:24;;;;;;;28.15;12.18;;;;;;;-4.25;52.20;100125.28;5042849;28;20048;-54
2023/12/05 07:49:49;;;;;;;25.95;12.70;;;;;;;-4.28;52.24;100141.03;5042923;28;20047;-62
2023/12/05 07:52:15;;;;;;;26.55;13.05;;;;;;;-4.39;53.12;100143.78;5032416;28;20026;-63
2023/12/05 07:54:41;;;;;;;28.17;12.75;;;;;;;-4.49;53.22;100157.84;5032376;28;20116;-59
2023/12/05 07:57:06;;;;;;;29.17;12.13;;;;;;;-4.66;53.68;100150.25;5032339;28;20423;-58
2023/12/05 07:59:32;;;;;;;27.10;13.00;;;;;;;-4.71;54.02;100163.34;5032316;28;20033;-57
2023/12/05 08:01:57;;;;;;;26.40;11.98;;;;;;;-4.78;54.06;100157.34;5035847;28;20033;-57
2023/12/05 08:04:23;;;;;;;28.73;12.27;;;;;;;-4.84;54.62;100161.78;5031606;28;20033;-59
2023/12/05 08:06:48;;;;;;;27.17;12.13;;;;;;;-4.92;54.89;100164.47;5050631;28;20040;-60
2023/12/05 08:09:14;;;;;;;28.85;12.90;;;;;;;-5.01;54.99;100175.88;5043691;28;20041;-61
2023/12/05 08:11:40;;;;;;;25.88;12.25;;;;;;;-5.08;55.52;100169.88;5051658;28;20455;-60
2023/12/05 08:14:05;;;;;;;23.67;10.48;;;;;;;-5.05;55.04;100185.53;5046472;28;20029;-60
2023/12/05 08:16:31;;;;;;;24.70;11.45;;;;;;;-5.20;55.86;100175.22;5032981;28;20033;-59
2023/12/05 08:18:57;;;;;;;23.95;11.50;;;;;;;-5.28;55.90;100177.91;5051490;28;20068;-60
2023/12/05 08:21:22;;;;;;;23.73;10.90;;;;;;;-5.29;56.11;100180.56;5050665;28;20111;-62
2023/12/05 08:23:48;;;;;;;24.75;11.57;;;;;;;-5.45;56.28;100190.25;5051773;28;20044;-61
2023/12/05 08:26:14;;;;;;;22.63;10.32;;;;;;;-5.52;56.84;100176.41;5051852;28;20028;-59
2023/12/05 08:28:39;;;;;;;24.80;10.75;;;;;;;-5.45;56.73;100180.69;5046952;28;20041;-57
2023/12/05 08:31:06;;;;;;;19.50;9.88;;;;;;;-5.51;56.91;100178.13;5047536;28;20037;-62
2023/12/05 08:33:41;;;;;;;26.25;11.50;;;;;;;-5.41;56.65;100186.75;5051183;28;20143;-59
2023/12/05 08:36:07;;;;;;;25.83;11.50;;;;;;;-5.43;56.82;100178.03;5050942;28;20107;-60
2023/12/05 08:38:32;;;;;;;24.17;11.10;;;;;;;-5.50;56.47;100187.69;5046663;28;20064;-59
2023/12/05 08:40:58;;;;;;;22.10;10.70;;;;;;;-5.55;56.74;100190.34;5046675;28;20029;-58
2023/12/05 08:43:23;;;;;;;25.58;11.70;;;;;;;-5.52;57.06;100189.47;5050194;28;20036;-57
2023/12/05 08:45:49;;;;;;;22.48;10.85;;;;;;;-5.49;56.57;100187.66;5039824;28;20036;-59
2023/12/05 08:48:15;;;;;;;25.20;10.70;;;;;;;-5.53;57.49;100185.13;5034685;28;20036;-58
2023/12/05 08:50:41;;;;;;;25.05;10.90;;;;;;;-5.49;57.45;100186.81;5051022;28;20033;-62
2023/12/05 08:53:08;;;;;;;21.90;10.57;;;;;;;-5.46;57.71;100194.63;5050929;28;20036;-61
2023/12/05 08:55:34;;;;;;;22.50;11.00;;;;;;;-5.39;57.65;100190.22;5047273;28;20115;-61
2023/12/05 08:58:00;;;;;;;20.30;9.88;;;;;;;-5.52;56.90;100192.91;5035540;28;20723;-62
2023/12/05 09:00:25;;;;;;;23.33;10.48;;;;;;;-5.85;57.46;100163.63;5049220;28;20043;-57
2023/12/05 09:02:51;;;;;;;18.63;9.15;;;;;;;-5.71;57.83;100199.16;5053834;28;20526;-61
2023/12/05 09:05:16;;;;;;;19.42;9.05;;;;;;;-5.71;57.81;100201.75;5054704;28;20029;-53
2023/12/05 09:07:42;;;;;;;19.58;9.48;;;;;;;-5.78;57.63;100193.16;5053062;28;20094;-60
2023/12/05 09:10:08;;;;;;;21.42;9.98;;;;;;;-5.80;58.10;100205.31;5051211;28;20033;-60
2023/12/05 09:12:33;;;;;;;23.70;10.00;;;;;;;-5.88;58.19;100201.91;5050386;28;20029;-60
2023/12/05 09:14:59;;;;;;;20.05;9.88;;;;;;;-6.04;57.99;100211.59;5043594;28;20028;-62
2023/12/05 09:17:25;;;;;;;20.50;9.73;;;;;;;-6.14;58.25;100213.38;5034905;28;20044;-60
2023/12/05 09:19:51;;;;;;;18.60;8.65;;;;;;;-6.20;58.72;100225.59;5045773;28;20029;-58
2023/12/05 09:22:17;;;;;;;18.50;8.90;;;;;;;-6.27;58.80;100212.59;5054092;28;20091;-57
2023/12/05 09:24:43;;;;;;;17.98;8.38;;;;;;;-6.09;59.00;100229.88;5048073;28;20032;-55
2023/12/05 09:27:09;;;;;;;19.15;9.88;;;;;;;-6.13;58.83;100233.38;5051480;28;20037;-57
2023/12/05 09:29:34;;;;;;;22.08;9.55;;;;;;;-6.21;59.03;100226.47;5039646;28;20045;-56
2023/12/05 09:32:02;;;;;;;21.38;9.65;;;;;;;-6.26;59.07;100215.19;5034411;28;20056;-57
2023/12/05 09:34:29;;;;;;;19.65;9.02;;;;;;;-6.13;58.85;100230.75;5034528;28;20042;-56
2023/12/05 09:36:54;;;;;;;23.10;9.52;;;;;;;-6.23;58.72;100224.72;5045091;28;20091;-59
2023/12/05 09:39:20;;;;;;;19.65;9.13;;;;;;;-6.28;59.80;100232.56;5054196;28;20040;-55
2023/12/05 09:41:52;;;;;;;22.50;9.60;;;;;;;-6.29;59.32;100233.44;5037440;28;20140;-58
2023/12/05 09:44:21;;;;;;;19.70;8.80;;;;;;;-6.25;59.62;100240.38;5047643;28;20104;-55
2023/12/05 09:46:51;;;;;;;19.50;8.70;;;;;;;-6.26;59.79;100228.22;5052278;28;20140;-58
2023/12/05 09:49:18;;;;;;;21.58;8.82;;;;;;;-6.27;60.16;100230.84;5045979;28;20445;-56
2023/12/05 09:51:45;;;;;;;19.92;8.57;;;;;;;-6.27;59.76;100231.72;5041798;28;20042;-59
2023/12/05 09:54:11;;;;;;;18.20;9.25;;;;;;;-6.25;60.11;100235.19;5054126;28;20029;-56
2023/12/05 09:56:37;;;;;;;17.55;8.52;;;;;;;-6.07;60.22;100241.16;5053755;28;20068;-55
2023/12/05 09:59:03;;;;;;;19.42;8.25;;;;;;;-5.93;60.13;100223.66;5047206;28;20108;-58
2023/12/05 10:01:31;;;;;;;18.20;9.10;;;;;;;-5.79;59.83;100218.34;5036135;28;20113;-56
2023/12/05 10:03:59;;;;;;;20.05;9.00;;;;;;;-5.59;59.44;100229.50;5034298;28;20037;-57
2023/12/05 10:06:26;;;;;;;23.90;9.63;;;;;;;-5.60;58.87;100227.78;5047211;28;20052;-53
2023/12/05 10:08:52;;;;;;;17.75;9.20;;;;;;;-5.50;59.20;100245.94;5053262;28;20044;-55
2023/12/05 10:11:29;;;;;;;22.80;10.15;;;;;;;-5.44;58.55;100242.44;5047065;28;20348;-56
2023/12/05 10:13:56;;;;;;;18.08;9.05;;;;;;;-5.74;58.67;100184.41;5053462;28;20024;-56
2023/12/05 10:16:24;;;;;;;17.20;8.75;;;;;;;-5.62;58.25;100231.25;5053274;28;20029;-57
2023/12/05 10:18:50;;;;;;;17.45;9.00;;;;;;;-5.70;59.14;100238.28;5052689;28;20095;-56
2023/12/05 10:21:16;;;;;;;19.17;9.18;;;;;;;-5.77;58.61;100239.22;5038650;28;20397;-57
2023/12/05 10:23:42;;;;;;;20.10;8.85;;;;;;;-5.81;58.91;100248.78;5053666;28;20033;-58
2023/12/05 10:26:08;;;;;;;19.73;9.75;;;;;;;-5.79;59.44;100251.38;5048738;28;20452;-57
2023/12/05 10:28:49;;;;;;;21.20;9.65;;;;;;;-5.74;59.54;100239.19;5052767;28;20025;-57
2023/12/05 10:31:15;;;;;;;18.17;8.93;;;;;;;-5.75;58.90;100250.50;5053716;28;20163;-54
2023/12/05 10:33:41;;;;;;;19.10;8.95;;;;;;;-5.89;59.05;100239.28;5052418;28;20044;-52
2023/12/05 10:36:13;;;;;;;17.85;8.93;;;;;;;-5.89;59.12;100234.06;5039993;28;20048;-60
2023/12/05 10:38:48;;;;;;;20.40;9.10;;;;;;;-5.73;59.40;100260.91;5037157;28;20424;-58
2023/12/05 10:41:24;;;;;;;19.88;8.10;;;;;;;-5.69;59.22;100279.13;5032836;28;20034;-57
2023/12/05 10:43:51;;;;;;;17.90;8.82;;;;;;;-5.76;59.70;100260.06;5031656;28;20116;-58
2023/12/05 10:46:17;;;;;;;18.67;8.82;;;;;;;-5.67;59.58;100269.56;5031585;28;20333;-55
2023/12/05 10:48:45;;;;;;;20.58;8.50;;;;;;;-5.63;59.17;100273.88;5030689;28;20442;-54
2023/12/05 10:51:10;;;;;;;23.15;10.93;;;;;;;-5.54;59.60;100280.78;5044829;28;20028;-55
2023/12/05 10:53:36;;;;;;;18.38;9.30;;;;;;;-5.51;59.10;100285.13;5050884;28;20029;-58
2023/12/05 10:56:12;;;;;;;21.35;9.27;;;;;;;-5.76;59.07;100231.34;5036594;28;20103;-58
2023/12/05 10:58:40;;;;;;;20.17;9.85;;;;;;;-5.78;59.24;100232.25;5033725;28;20025;-51
2023/12/05 11:01:09;;;;;;;23.75;10.95;;;;;;;-5.46;59.31;100285.94;5051922;28;20037;-56
2023/12/05 11:03:36;;;;;;;22.60;10.82;;;;;;;-5.47;59.70;100281.59;5053047;28;20029;-58
2023/12/05 11:06:02;;;;;;;23.90;11.00;;;;;;;-5.44;58.72;100286.78;5052366;28;20060;-57
2023/12/05 11:08:28;;;;;;;23.23;10.30;;;;;;;-5.49;58.93;100289.44;5051691;28;20443;-57
2023/12/05 11:10:56;;;;;;;23.73;11.15;;;;;;;-5.60;59.29;100280.81;5049206;28;20040;-59